Time;durP1;ratioP1;P1;durP2;ratioP2;P2;SDS_P1;SDS_P2;PMS_P1;PMS_P2;Temp;Humidity;BMP_temperature;BMP_pressure;BME280_temperature;BME280_humidity;BME280_pressure;Samples;Min_cycle;Max_cycle;Signal;HPM_P1;HPM_P2
2023/04/03 00:01:09;;;;;;;1.47;0.80;;;1.90;99.90;1.00;101539;;;;596708;236;24084;-76
2023/04/03 00:03:37;;;;;;;2.80;0.93;;;1.90;99.90;0.90;101531;;;;596684;236;24049;-75
2023/04/03 00:06:08;;;;;;;0.87;0.80;;;1.90;99.90;0.90;101527;;;;596507;236;24100;-75
2023/04/03 00:08:33;;;;;;;4.97;0.93;;;1.80;99.90;0.90;101534;;;;606755;236;24060;-74
2023/04/03 00:11:01;;;;;;;1.03;0.70;;;1.80;99.90;0.90;101534;;;;596503;236;24069;-74
2023/04/03 00:13:29;;;;;;;2.15;0.68;;;1.80;99.90;0.90;101535;;;;600931;236;34824;-76
2023/04/03 00:15:57;;;;;;;0.53;0.53;;;1.80;99.90;0.90;101539;;;;605947;236;24018;-75
2023/04/03 00:18:28;;;;;;;0.30;0.30;;;1.80;99.90;0.90;101528;;;;596410;236;24036;-75
2023/04/03 00:20:53;;;;;;;2.57;1.00;;;1.80;99.90;0.90;101535;;;;601401;236;24127;-75
2023/04/03 00:23:23;;;;;;;1.20;0.93;;;1.80;99.90;0.90;101538;;;;597310;236;24022;-74
2023/04/03 00:25:49;;;;;;;1.87;1.00;;;1.80;99.90;0.90;101546;;;;597821;236;24080;-74
2023/04/03 00:28:17;;;;;;;5.60;1.53;;;1.80;99.90;0.90;101542;;;;597412;236;24025;-74
2023/04/03 00:30:48;;;;;;;3.60;1.20;;;1.80;99.90;0.90;101545;;;;597564;236;24022;-75
2023/04/03 00:33:12;;;;;;;2.67;0.90;;;1.80;99.90;0.90;101540;;;;597060;236;24098;-76
2023/04/03 00:35:43;;;;;;;0.90;0.80;;;1.80;99.90;0.90;101529;;;;597278;236;24020;-75
2023/04/03 00:38:08;;;;;;;2.00;1.10;;;1.80;99.90;0.90;101528;;;;597296;236;24084;-80
2023/04/03 00:40:37;;;;;;;1.53;1.13;;;1.80;99.90;0.90;101529;;;;597228;236;24024;-76
2023/04/03 00:43:14;;;;;;;1.73;1.00;;;1.80;99.90;0.90;101538;;;;606606;233;24038;-80
2023/04/03 00:45:43;;;;;;;1.23;0.73;;;1.80;99.90;0.90;101539;;;;606836;236;24038;-79
2023/04/03 00:48:37;;;;;;;4.30;1.10;;;1.80;99.90;0.90;101532;;;;607044;236;24020;-75
2023/04/03 00:51:06;;;;;;;1.80;0.93;;;1.90;99.90;0.90;101534;;;;597391;236;24037;-75
2023/04/03 00:53:34;;;;;;;1.60;0.60;;;1.80;99.90;0.90;101541;;;;606801;236;24037;-75
2023/04/03 00:56:02;;;;;;;3.43;0.80;;;1.80;99.90;0.90;101535;;;;606468;236;24071;-75
2023/04/03 00:58:33;;;;;;;2.37;1.00;;;1.90;99.90;0.90;101534;;;;606290;236;24048;-75
2023/04/03 01:01:01;;;;;;;2.47;1.07;;;1.90;99.90;0.90;101530;;;;595329;236;24066;-75
2023/04/03 01:03:31;;;;;;;3.33;0.73;;;1.80;99.90;0.90;101532;;;;606135;233;24083;-75
2023/04/03 01:05:56;;;;;;;4.57;1.00;;;1.80;99.90;0.80;101541;;;;596841;236;24050;-75
2023/04/03 01:08:27;;;;;;;2.40;0.90;;;1.80;99.90;0.90;101543;;;;596930;236;24033;-75
2023/04/03 01:10:52;;;;;;;1.07;0.90;;;1.80;99.90;0.90;101539;;;;596826;236;24036;-76
2023/04/03 01:13:29;;;;;;;1.83;0.80;;;1.80;99.90;0.80;101538;;;;597023;236;24078;-77
2023/04/03 01:15:57;;;;;;;1.43;0.70;;;1.80;99.90;0.70;101546;;;;597030;236;24036;-76
2023/04/03 01:18:27;;;;;;;1.93;1.33;;;1.70;99.90;0.60;101541;;;;596986;236;24022;-77
2023/04/03 01:21:07;;;;;;;2.42;1.12;;;1.60;99.90;0.60;101530;;;;600788;236;34876;-75
2023/04/03 01:23:51;;;;;;;2.03;0.63;;;1.50;99.90;0.50;101540;;;;601008;236;24032;-75
2023/04/03 01:26:19;;;;;;;5.00;1.10;;;1.50;99.90;0.50;101545;;;;605287;236;24052;-75
2023/04/03 01:28:47;;;;;;;2.27;0.77;;;1.40;99.90;0.50;101540;;;;606353;236;24015;-74
2023/04/03 01:31:27;;;;;;;3.43;1.40;;;1.40;99.90;0.50;101548;;;;597018;236;24024;-75
2023/04/03 01:33:58;;;;;;;1.93;0.70;;;1.40;99.90;0.50;101548;;;;601270;236;35004;-75
2023/04/03 01:36:28;;;;;;;0.87;0.63;;;1.40;99.90;0.40;101545;;;;598355;236;24033;-77
2023/04/03 01:39:00;;;;;;;1.13;0.97;;;1.40;99.90;0.40;101542;;;;598037;236;24040;-77
2023/04/03 01:41:25;;;;;;;0.73;0.73;;;1.40;99.90;0.40;101553;;;;597476;236;24124;-76
2023/04/03 01:43:52;;;;;;;2.77;0.90;;;1.40;99.90;0.30;101555;;;;597503;236;24101;-75
2023/04/03 01:46:20;;;;;;;4.73;1.23;;;1.30;99.90;0.30;101550;;;;597267;236;24062;-75
2023/04/03 01:48:51;;;;;;;2.20;1.00;;;1.30;99.90;0.30;101551;;;;597169;236;24057;-76
2023/04/03 01:51:16;;;;;;;1.00;0.90;;;1.20;99.90;0.20;101546;;;;596925;236;24043;-76
2023/04/03 01:53:44;;;;;;;2.97;1.10;;;1.20;99.90;0.10;101552;;;;601015;234;24042;-79
2023/04/03 01:56:12;;;;;;;2.20;1.27;;;1.10;99.90;0.10;101546;;;;596832;236;24139;-76
2023/04/03 01:58:41;;;;;;;0.97;0.80;;;1.00;99.90;0.10;101554;;;;596896;236;24038;-76
2023/04/03 02:01:09;;;;;;;2.00;1.00;;;1.00;99.90;0.10;101553;;;;596745;236;24020;-76
2023/04/03 02:03:37;;;;;;;1.40;1.00;;;1.00;99.90;0.10;101550;;;;596922;236;24056;-75
2023/04/03 02:06:07;;;;;;;2.23;0.97;;;1.10;99.90;0.20;101557;;;;596927;236;24087;-77
2023/04/03 02:08:32;;;;;;;2.00;1.13;;;1.10;99.90;0.20;101555;;;;596605;236;24052;-78
2023/04/03 02:11:00;;;;;;;6.63;1.10;;;1.20;99.90;0.20;101557;;;;596796;236;24043;-75
2023/04/03 02:13:28;;;;;;;1.87;1.07;;;1.20;99.90;0.20;101557;;;;596578;236;24027;-76
2023/04/03 02:15:56;;;;;;;1.73;1.00;;;1.20;99.90;0.20;101557;;;;596698;236;24051;-75
2023/04/03 02:18:24;;;;;;;0.70;0.70;;;1.20;99.90;0.20;101557;;;;600684;236;24035;-77
2023/04/03 02:20:52;;;;;;;2.23;1.00;;;1.20;99.90;0.20;101558;;;;596484;236;24090;-78
2023/04/03 02:23:20;;;;;;;3.00;1.00;;;1.20;99.90;0.20;101558;;;;600768;236;24037;-75
2023/04/03 02:25:48;;;;;;;1.43;1.10;;;1.20;99.90;0.20;101562;;;;596646;236;25065;-77
2023/04/03 02:28:16;;;;;;;1.47;0.70;;;1.20;99.90;0.20;101576;;;;596726;236;24052;-75
2023/04/03 02:30:44;;;;;;;4.03;1.67;;;1.20;99.90;0.30;101577;;;;596591;236;24019;-76
2023/04/03 02:33:12;;;;;;;1.80;1.20;;;1.20;99.90;0.20;101570;;;;597098;236;24049;-80
2023/04/03 02:35:40;;;;;;;2.20;0.87;;;1.60;99.90;0.20;101559;;;;596574;236;24081;-75
2023/04/03 02:38:08;;;;;;;0.77;0.77;;;1.20;99.90;0.20;101579;;;;596497;236;24051;-75
2023/04/03 02:40:36;;;;;;;3.37;1.10;;;1.20;99.90;0.20;101575;;;;596724;236;24052;-75
2023/04/03 02:43:04;;;;;;;2.67;1.53;;;1.20;99.90;0.20;101570;;;;596589;236;24079;-77
2023/04/03 02:45:32;;;;;;;1.70;0.73;;;1.20;99.90;0.30;101579;;;;596715;236;24047;-76
2023/04/03 02:48:00;;;;;;;1.83;1.00;;;1.30;99.90;0.30;101578;;;;598637;236;24027;-75
2023/04/03 02:50:27;;;;;;;1.07;0.90;;;1.30;99.90;0.30;101572;;;;598105;236;24020;-75
2023/04/03 02:52:55;;;;;;;1.73;0.90;;;1.30;99.90;0.40;101574;;;;592611;236;34940;-75
2023/04/03 02:55:23;;;;;;;0.57;0.50;;;1.40;99.90;0.40;101576;;;;597744;236;24026;-75
2023/04/03 02:57:55;;;;;;;1.27;0.80;;;1.40;99.90;0.50;101596;;;;597461;236;24037;-77
2023/04/03 03:00:23;;;;;;;3.03;0.90;;;1.40;99.90;0.50;101584;;;;596717;236;24060;-76
2023/04/03 03:02:48;;;;;;;6.43;1.27;;;1.50;99.90;0.50;101593;;;;596671;236;24040;-75
2023/04/03 03:05:16;;;;;;;2.33;0.87;;;1.40;99.90;0.50;101578;;;;597344;236;24111;-75
2023/04/03 03:07:44;;;;;;;2.00;0.70;;;1.40;99.90;0.50;101592;;;;601386;236;24076;-75
2023/04/03 03:10:12;;;;;;;1.00;0.73;;;1.40;99.90;0.50;101594;;;;597214;236;24025;-75
2023/04/03 03:12:40;;;;;;;1.37;0.90;;;1.50;99.90;0.60;101591;;;;597247;236;24053;-76
2023/04/03 03:15:07;;;;;;;2.93;0.90;;;1.50;99.90;0.60;101620;;;;597230;236;24095;-76
2023/04/03 03:17:36;;;;;;;2.33;0.90;;;1.50;99.90;0.60;101599;;;;606804;236;24066;-76
2023/04/03 03:20:03;;;;;;;1.80;1.10;;;1.50;99.90;0.50;101589;;;;597240;236;24053;-76
2023/04/03 03:22:32;;;;;;;2.57;1.00;;;1.50;99.90;0.50;101595;;;;606674;236;24085;-75
2023/04/03 03:25:03;;;;;;;1.63;1.03;;;1.50;99.90;0.60;101595;;;;597003;232;24040;-74
2023/04/03 03:27:28;;;;;;;1.27;1.10;;;1.50;99.90;0.60;101597;;;;600887;236;24066;-76
2023/04/03 03:29:56;;;;;;;2.00;0.90;;;1.50;99.90;0.60;101598;;;;597055;236;24020;-76
2023/04/03 03:32:24;;;;;;;1.27;0.90;;;1.50;99.90;0.60;101596;;;;597081;236;24048;-75
2023/04/03 03:34:51;;;;;;;1.33;1.00;;;1.50;99.90;0.60;101599;;;;597020;236;24029;-78
2023/04/03 03:37:20;;;;;;;4.40;1.47;;;1.60;99.90;0.60;101597;;;;597109;236;24017;-76
2023/04/03 03:39:48;;;;;;;2.00;1.40;;;1.50;99.90;0.60;101600;;;;597089;236;26055;-78
2023/04/03 03:42:16;;;;;;;3.53;0.97;;;1.60;99.90;0.60;101597;;;;597151;236;24070;-78
2023/04/03 03:44:44;;;;;;;1.10;0.80;;;1.60;99.90;0.60;101591;;;;597145;236;24048;-74
2023/04/03 03:47:12;;;;;;;1.07;0.97;;;1.60;99.90;0.60;101601;;;;597173;236;24029;-76
2023/04/03 03:49:40;;;;;;;3.37;1.10;;;1.60;99.90;0.60;101612;;;;596488;236;24085;-79
2023/04/03 03:52:10;;;;;;;2.37;0.73;;;1.60;99.90;0.60;101604;;;;596606;236;24102;-76
2023/04/03 03:54:40;;;;;;;1.80;0.80;;;1.60;99.90;0.60;101607;;;;596489;236;24094;-76
2023/04/03 03:57:04;;;;;;;0.97;0.90;;;1.60;99.90;0.60;101614;;;;605744;236;24057;-77
2023/04/03 03:59:32;;;;;;;1.20;0.80;;;1.60;99.90;0.60;101620;;;;598662;236;24055;-77
2023/04/03 04:02:00;;;;;;;4.63;0.90;;;1.60;99.90;0.60;101634;;;;598048;236;24034;-77
2023/04/03 04:04:28;;;;;;;2.00;1.00;;;1.60;99.90;0.60;101619;;;;597715;236;24034;-75
2023/04/03 04:06:56;;;;;;;2.40;0.67;;;1.60;99.90;0.60;101640;;;;597318;236;24027;-76
2023/04/03 04:09:24;;;;;;;3.07;1.03;;;1.60;99.90;0.60;101630;;;;597315;236;24071;-76
2023/04/03 04:11:52;;;;;;;1.07;0.90;;;1.60;99.90;0.60;101632;;;;597129;236;24113;-76
2023/04/03 04:14:26;;;;;;;0.87;0.87;;;1.60;99.90;0.60;101623;;;;570461;241;24178;-78
2023/04/03 04:16:56;;;;;;;3.60;1.00;;;1.60;99.90;0.60;101619;;;;554561;255;24141;-81
2023/04/03 04:19:24;;;;;;;4.27;1.03;;;1.60;99.90;0.60;101636;;;;563749;250;24114;-79
2023/04/03 04:21:49;;;;;;;1.37;0.77;;;1.50;99.90;0.60;101636;;;;562174;255;24158;-80
2023/04/03 04:24:18;;;;;;;1.77;1.10;;;1.50;99.90;0.60;101655;;;;559775;250;35471;-80
2023/04/03 04:26:46;;;;;;;0.30;0.30;;;1.50;99.90;0.60;101635;;;;572995;250;25323;-80
2023/04/03 04:29:14;;;;;;;5.90;1.03;;;1.50;99.90;0.50;101629;;;;570464;250;24127;-80
2023/04/03 04:31:42;;;;;;;1.53;0.53;;;1.50;99.90;0.60;101648;;;;572996;250;24104;-81
2023/04/03 04:34:12;;;;;;;1.33;0.97;;;1.50;99.90;0.60;101641;;;;570231;250;24091;-80
2023/04/03 04:36:37;;;;;;;2.57;0.83;;;1.60;99.90;0.60;101634;;;;553848;255;24173;-81
2023/04/03 04:39:08;;;;;;;1.13;0.97;;;1.60;99.90;0.60;101636;;;;570089;250;24106;-77
2023/04/03 04:41:37;;;;;;;1.87;1.00;;;1.60;99.90;0.60;101650;;;;558432;254;24142;-76
2023/04/03 04:44:01;;;;;;;1.60;0.83;;;1.60;99.90;0.60;101644;;;;558713;255;24212;-79
2023/04/03 04:46:29;;;;;;;1.13;1.03;;;1.60;99.90;0.60;101649;;;;554389;255;24142;-76
2023/04/03 04:48:57;;;;;;;2.53;1.57;;;1.60;99.90;0.60;101643;;;;570214;250;24116;-79
2023/04/03 04:51:25;;;;;;;3.23;1.47;;;1.60;99.90;0.60;101654;;;;573129;250;24154;-79
2023/04/03 04:53:53;;;;;;;1.73;1.07;;;1.60;99.90;0.60;101661;;;;570529;250;24128;-77
2023/04/03 04:56:21;;;;;;;2.87;1.10;;;1.60;99.90;0.60;101649;;;;573236;250;24141;-78
2023/04/03 04:58:51;;;;;;;1.83;1.13;;;1.60;99.90;0.70;101660;;;;576810;246;24172;-78
2023/04/03 05:01:16;;;;;;;2.73;1.10;;;1.60;99.90;0.70;101660;;;;574345;246;24097;-80
2023/04/03 05:03:44;;;;;;;4.62;1.05;;;1.70;99.90;0.80;101682;;;;569569;246;35263;-78
2023/04/03 05:06:12;;;;;;;0.50;0.50;;;1.70;99.90;0.80;101664;;;;583765;242;24104;-80
2023/04/03 05:08:40;;;;;;;10.33;0.77;;;1.70;99.90;0.80;101665;;;;575327;246;24078;-80
2023/04/03 05:11:08;;;;;;;1.80;1.23;;;1.70;99.90;0.80;101660;;;;585069;242;24095;-81
2023/04/03 05:13:36;;;;;;;3.33;0.40;;;1.80;99.90;0.80;101679;;;;584459;245;24124;-83
2023/04/03 05:16:07;;;;;;;4.50;0.83;;;1.70;99.90;0.80;101678;;;;575498;245;24120;-80
2023/04/03 05:18:35;;;;;;;1.53;0.93;;;1.80;99.90;0.80;101662;;;;575266;246;24230;-80
2023/04/03 05:21:03;;;;;;;6.07;1.37;;;1.70;99.90;0.80;101673;;;;575129;246;24107;-81
2023/04/03 05:23:31;;;;;;;4.47;1.20;;;1.80;99.90;0.80;101682;;;;583745;245;24105;-81
2023/04/03 05:26:00;;;;;;;2.87;1.30;;;1.80;99.90;0.80;101686;;;;574752;246;24138;-79
2023/04/03 05:28:27;;;;;;;1.27;1.13;;;1.70;99.90;0.80;101688;;;;574657;246;24063;-80
2023/04/03 05:30:58;;;;;;;3.83;1.00;;;1.80;99.90;0.80;101680;;;;583400;242;24101;-81
2023/04/03 05:33:26;;;;;;;2.27;0.90;;;1.80;99.90;0.90;101680;;;;573947;246;24166;-80
2023/04/03 05:35:51;;;;;;;2.07;0.80;;;1.80;99.90;0.90;101698;;;;574248;246;24091;-81
2023/04/03 05:38:25;;;;;;;1.63;0.83;;;1.80;99.90;0.90;101692;;;;574311;246;24115;-80
2023/04/03 05:40:50;;;;;;;4.00;0.80;;;1.90;99.90;1.00;101701;;;;574024;246;24098;-79
2023/04/03 05:43:18;;;;;;;0.80;0.80;;;1.90;99.90;1.00;101707;;;;577055;246;24087;-81
2023/04/03 05:45:46;;;;;;;2.40;1.00;;;2.00;99.90;1.10;101703;;;;583202;246;24148;-80
2023/04/03 05:48:14;;;;;;;3.40;0.90;;;2.00;99.90;1.20;101694;;;;574239;246;24090;-77
2023/04/03 05:50:43;;;;;;;1.23;0.60;;;2.20;99.90;1.30;101711;;;;574722;246;24110;-79
2023/04/03 05:53:17;;;;;;;1.37;0.80;;;2.20;99.90;1.30;101697;;;;574734;246;24085;-81
2023/04/03 05:55:46;;;;;;;1.10;0.97;;;2.20;99.90;1.20;101702;;;;574351;246;24102;-80
2023/04/03 05:58:16;;;;;;;3.43;1.43;;;2.20;99.90;1.20;101699;;;;574322;246;24096;-79
2023/04/03 06:00:41;;;;;;;3.27;1.30;;;2.20;99.90;1.20;101701;;;;573878;246;24082;-80
2023/04/03 06:03:09;;;;;;;5.37;0.90;;;2.20;99.90;1.30;101699;;;;574249;246;24071;-81
2023/04/03 06:05:38;;;;;;;2.03;0.70;;;2.30;99.90;1.40;101709;;;;574140;246;24144;-80
2023/04/03 06:08:06;;;;;;;0.30;0.30;;;2.30;99.90;1.50;101706;;;;574031;246;24462;-79
2023/04/03 06:10:34;;;;;;;0.80;0.77;;;2.40;99.90;1.90;101704;;;;574413;246;24101;-80
2023/04/03 06:13:04;;;;;;;0.43;0.40;;;2.70;99.90;4.40;101714;;;;583294;246;24129;-77
2023/04/03 06:15:30;;;;;;;3.85;0.90;;;7.20;99.10;7.50;101728;;;;569208;246;35253;-80
2023/04/03 06:17:58;;;;;;;1.23;0.60;;;7.10;99.10;9.60;101757;;;;574490;246;24088;-78
2023/04/03 06:20:26;;;;;;;0.57;0.57;;;9.60;87.40;9.40;101737;;;;574519;244;24077;-81
2023/04/03 06:22:54;;;;;;;5.23;1.27;;;10.20;76.00;8.30;101726;;;;575937;245;24084;-80
2023/04/03 06:25:22;;;;;;;6.53;0.90;;;9.60;73.20;7.40;101730;;;;575425;245;24097;-79
2023/04/03 06:27:50;;;;;;;0.90;0.60;;;8.90;73.50;6.80;101744;;;;575353;245;24085;-79
2023/04/03 06:30:18;;;;;;;1.30;0.80;;;8.20;75.20;6.40;101737;;;;575187;246;24111;-80
2023/04/03 06:32:46;;;;;;;5.73;0.73;;;7.60;77.20;7.00;101745;;;;583817;246;24071;-80
2023/04/03 06:35:13;;;;;;;1.23;0.77;;;7.90;79.50;8.20;101744;;;;574946;246;24081;-78
2023/04/03 06:37:41;;;;;;;0.67;0.67;;;8.90;79.70;9.50;101775;;;;583855;246;24129;-78
2023/04/03 06:40:10;;;;;;;4.10;0.93;;;10.50;71.70;9.90;101764;;;;583578;246;24095;-78
2023/04/03 06:42:39;;;;;;;0.97;0.80;;;11.50;67.30;11.10;101772;;;;578101;246;24091;-77
2023/04/03 06:45:11;;;;;;;1.40;0.70;;;12.70;61.50;12.30;101779;;;;574758;246;24140;-75
2023/04/03 06:47:36;;;;;;;2.93;0.90;;;12.70;61.40;13.30;101766;;;;577993;246;24109;-77
2023/04/03 06:50:06;;;;;;;1.03;0.73;;;13.70;58.80;14.00;101770;;;;574755;246;24108;-80
2023/04/03 06:52:31;;;;;;;3.03;1.00;;;14.60;55.00;15.00;101779;;;;577753;243;24158;-77
2023/04/03 06:55:00;;;;;;;0.50;0.50;;;16.00;50.40;14.90;101778;;;;574614;246;24078;-76
2023/04/03 06:57:29;;;;;;;1.53;0.80;;;16.00;50.70;15.10;101796;;;;574705;246;23158;-76
2023/04/03 06:59:57;;;;;;;2.90;1.10;;;15.90;50.60;14.80;101802;;;;574723;246;24089;-77
2023/04/03 07:02:24;;;;;;;3.17;0.90;;;16.00;48.20;13.40;101809;;;;574702;246;24079;-75
2023/04/03 07:04:52;;;;;;;1.17;0.70;;;15.00;48.80;11.80;101782;;;;574348;246;24083;-80
2023/04/03 07:07:21;;;;;;;1.60;0.83;;;13.70;50.20;13.00;101819;;;;574613;246;24122;-76
2023/04/03 07:09:49;;;;;;;5.13;1.20;;;13.80;52.00;13.00;101790;;;;574108;246;24119;-78
2023/04/03 07:12:16;;;;;;;5.20;1.10;;;14.00;51.30;11.60;101796;;;;568992;246;35227;-79
2023/04/03 07:14:44;;;;;;;3.80;0.93;;;13.10;52.50;10.20;101798;;;;582954;246;24070;-78
2023/04/03 07:17:12;;;;;;;0.97;0.80;;;11.90;54.00;9.20;101809;;;;574057;246;24086;-78
2023/04/03 07:19:41;;;;;;;1.03;0.90;;;9.70;57.80;8.10;101782;;;;574264;246;24129;-78
2023/04/03 07:22:10;;;;;;;1.60;0.93;;;9.70;58.50;8.00;101785;;;;574115;246;24074;-78
2023/04/03 07:24:36;;;;;;;2.00;0.93;;;9.10;60.90;10.00;101791;;;;577690;245;35226;-77
2023/04/03 07:27:08;;;;;;;3.10;1.00;;;10.30;59.60;11.30;101801;;;;569160;246;35167;-76
2023/04/03 07:29:33;;;;;;;2.10;0.70;;;11.90;55.10;11.10;101795;;;;580948;246;24082;-75
2023/04/03 07:32:02;;;;;;;2.07;0.90;;;11.80;55.90;10.90;101791;;;;574233;244;24141;-76
2023/04/03 07:34:30;;;;;;;4.73;0.90;;;11.80;55.90;12.00;101795;;;;575557;245;24089;-75
2023/04/03 07:36:58;;;;;;;7.63;0.97;;;12.50;55.30;11.70;101820;;;;575513;245;24149;-75
2023/04/03 07:39:26;;;;;;;0.83;0.70;;;12.60;54.70;10.70;101834;;;;575021;245;24078;-76
2023/04/03 07:41:55;;;;;;;1.93;0.80;;;12.00;54.90;9.70;101811;;;;574849;246;24107;-75
2023/04/03 07:44:21;;;;;;;1.70;0.60;;;11.20;56.00;8.70;101806;;;;583568;246;24077;-75
2023/04/03 07:46:53;;;;;;;1.17;0.73;;;9.40;59.50;8.00;101804;;;;578382;246;24180;-77
2023/04/03 07:49:22;;;;;;;0.80;0.80;;;9.40;59.50;9.60;101842;;;;574374;246;24177;-77
2023/04/03 07:51:54;;;;;;;1.70;0.70;;;11.00;59.20;10.60;101803;;;;574805;246;25163;-76
2023/04/03 07:54:21;;;;;;;1.27;0.80;;;12.50;56.50;12.00;101807;;;;574158;246;25137;-76
2023/04/03 07:56:48;;;;;;;5.73;0.87;;;12.20;56.20;10.80;101834;;;;574408;246;25179;-80
2023/04/03 07:59:15;;;;;;;3.77;0.77;;;12.20;55.60;9.60;101815;;;;574220;246;24074;-78
2023/04/03 08:01:43;;;;;;;1.60;0.67;;;11.10;57.50;10.80;101844;;;;574490;246;24090;-78
2023/04/03 08:04:11;;;;;;;0.90;0.80;;;11.50;57.80;10.40;101828;;;;574322;246;24078;-80
2023/04/03 08:06:39;;;;;;;0.57;0.57;;;10.60;57.20;9.20;101823;;;;583310;242;25188;-77
2023/04/03 08:09:08;;;;;;;0.30;0.30;;;9.70;58.50;8.30;101820;;;;574251;246;24139;-78
2023/04/03 08:11:36;;;;;;;3.10;0.60;;;9.70;58.40;7.60;101816;;;;574008;246;24095;-77
2023/04/03 08:14:04;;;;;;;1.97;0.50;;;8.90;59.90;7.10;101823;;;;574420;246;24104;-77
2023/04/03 08:16:32;;;;;;;1.50;0.43;;;8.30;62.10;6.90;101839;;;;574494;246;24111;-77
2023/04/03 08:19:00;;;;;;;2.17;0.53;;;7.90;63.20;6.80;101821;;;;574481;246;24128;-75
2023/04/03 08:21:31;;;;;;;0.93;0.60;;;7.70;64.80;7.20;101815;;;;574513;246;24096;-76
2023/04/03 08:23:56;;;;;;;6.83;0.83;;;8.00;65.50;7.40;101827;;;;572641;246;24102;-76
2023/04/03 08:26:23;;;;;;;1.20;0.67;;;8.20;64.90;7.40;101833;;;;574481;246;24107;-75
2023/04/03 08:28:51;;;;;;;0.60;0.60;;;8.20;65.00;8.70;101842;;;;574447;246;24111;-75
2023/04/03 08:31:19;;;;;;;1.80;0.50;;;9.30;62.80;8.50;101835;;;;574493;246;24110;-77
2023/04/03 08:33:47;;;;;;;3.30;0.53;;;9.50;62.20;8.60;101845;;;;574522;246;24158;-76
2023/04/03 08:36:24;;;;;;;1.53;0.43;;;9.40;63.10;10.50;101825;;;;574512;246;24092;-77
2023/04/03 08:38:51;;;;;;;1.57;0.50;;;10.80;61.00;12.60;101841;;;;574440;246;24127;-76
2023/04/03 08:41:31;;;;;;;3.00;0.50;;;12.90;57.60;13.40;101838;;;;574485;246;24130;-76
2023/04/03 08:44:16;;;;;;;1.90;0.60;;;15.60;53.40;15.00;101838;;;;583640;244;24137;-77
2023/04/03 08:47:20;;;;;;;0.80;0.43;;;17.00;51.50;16.30;101840;;;;575671;241;24095;-77
2023/04/03 08:49:54;;;;;;;1.30;0.87;;;17.00;51.40;16.00;101831;;;;578255;245;24083;-77
2023/04/03 08:52:35;;;;;;;0.80;0.60;;;17.40;47.00;15.80;101851;;;;574547;245;24170;-76
2023/04/03 08:55:03;;;;;;;1.97;0.80;;;17.40;47.00;15.40;101844;;;;574541;246;24126;-76
2023/04/03 08:57:36;;;;;;;1.17;0.97;;;16.80;48.50;16.10;101846;;;;574315;246;24089;-75
2023/04/03 09:00:07;;;;;;;1.70;0.87;;;17.30;48.20;15.80;101849;;;;575001;246;24073;-77
2023/04/03 09:02:46;;;;;;;2.23;0.50;;;17.20;47.40;15.40;101857;;;;577163;246;24146;-79
2023/04/03 09:05:17;;;;;;;1.00;1.00;;;17.00;47.30;14.90;101833;;;;574754;246;24150;-81
2023/04/03 09:07:48;;;;;;;2.00;0.63;;;16.60;49.60;15.50;101835;;;;574791;246;24071;-79
2023/04/03 09:10:16;;;;;;;0.50;0.50;;;16.60;49.60;16.50;101834;;;;583280;246;24094;-78
2023/04/03 09:12:50;;;;;;;1.13;0.60;;;17.40;49.10;16.80;101831;;;;574487;246;24153;-78
2023/04/03 09:15:17;;;;;;;1.27;0.60;;;17.90;48.20;16.50;101839;;;;574023;246;24079;-77
2023/04/03 09:17:45;;;;;;;2.10;0.90;;;17.70;47.40;16.50;101844;;;;574137;246;24118;-81
2023/04/03 09:20:31;;;;;;;0.90;0.80;;;17.70;47.80;16.20;101846;;;;583210;242;24078;-80
2023/04/03 09:22:59;;;;;;;1.63;0.60;;;17.50;48.30;14.60;101843;;;;573744;246;24097;-80
2023/04/03 09:25:27;;;;;;;2.70;0.97;;;16.20;49.50;13.70;101854;;;;574169;246;24083;-77
2023/04/03 09:27:55;;;;;;;0.80;0.77;;;15.20;51.20;12.80;101844;;;;572988;246;24084;-81
2023/04/03 09:30:23;;;;;;;0.87;0.77;;;14.30;52.40;12.10;101845;;;;574200;246;24091;-81
2023/04/03 09:32:50;;;;;;;1.03;0.53;;;13.40;53.70;11.60;101840;;;;573959;246;24169;-76
2023/04/03 09:35:21;;;;;;;1.57;0.70;;;12.80;55.40;11.90;101853;;;;573970;246;24149;-79
2023/04/03 09:37:49;;;;;;;0.37;0.37;;;12.80;56.20;12.80;101846;;;;574087;246;24079;-80
2023/04/03 09:40:29;;;;;;;1.87;0.87;;;13.40;56.60;13.30;101835;;;;577518;246;25175;-76
2023/04/03 09:42:59;;;;;;;1.57;0.60;;;14.20;54.30;13.40;101844;;;;573930;246;24076;-75
2023/04/03 09:45:28;;;;;;;1.77;1.20;;;14.70;55.00;13.60;101837;;;;573995;246;24094;-80
2023/04/03 09:48:06;;;;;;;2.43;0.93;;;14.10;55.70;12.70;101839;;;;574000;246;24081;-76
2023/04/03 09:50:37;;;;;;;4.90;0.83;;;14.00;55.60;11.20;101838;;;;577295;244;24105;-76
2023/04/03 09:53:08;;;;;;;9.53;0.73;;;11.80;59.30;10.20;101829;;;;574001;246;24106;-75
2023/04/03 09:55:36;;;;;;;3.37;1.13;;;10.80;62.50;9.40;101835;;;;582339;244;24146;-78
2023/04/03 09:58:08;;;;;;;5.23;0.80;;;10.70;62.50;9.80;101830;;;;575152;245;24078;-75
2023/04/03 10:00:41;;;;;;;4.83;0.63;;;10.60;66.10;11.20;101837;;;;574576;241;24116;-77
2023/04/03 10:03:05;;;;;;;0.70;0.70;;;11.80;64.80;11.80;101835;;;;574193;245;24086;-77
2023/04/03 10:05:39;;;;;;;1.23;1.00;;;12.60;61.80;12.90;101838;;;;573234;246;24078;-77
2023/04/03 10:08:16;;;;;;;2.57;1.00;;;13.60;61.60;13.80;101831;;;;574804;246;24122;-77
2023/04/03 10:10:45;;;;;;;1.93;0.73;;;14.60;58.70;14.20;101851;;;;583186;246;24176;-76
2023/04/03 10:13:20;;;;;;;2.67;0.60;;;14.60;56.70;13.00;101833;;;;578365;246;24114;-76
2023/04/03 10:16:08;;;;;;;4.20;1.17;;;14.60;56.70;11.80;101830;;;;574194;246;24127;-77
2023/04/03 10:18:38;;;;;;;0.93;0.83;;;13.40;58.90;10.80;101827;;;;574107;246;24102;-75
2023/04/03 10:21:07;;;;;;;1.93;0.87;;;12.20;62.80;9.90;101828;;;;582973;246;24163;-75
2023/04/03 10:23:34;;;;;;;2.77;0.97;;;11.20;67.60;8.70;101845;;;;574269;246;24131;-77
2023/04/03 10:26:42;;;;;;;3.77;1.00;;;10.20;72.80;7.70;101831;;;;574358;246;24141;-78
2023/04/03 10:29:16;;;;;;;0.63;0.50;;;9.20;77.80;6.90;101819;;;;578649;246;24096;-78
2023/04/03 10:32:02;;;;;;;1.57;0.60;;;8.20;85.00;6.30;101816;;;;578263;246;24097;-79
2023/04/03 10:34:32;;;;;;;2.13;0.90;;;7.50;87.60;6.00;101812;;;;573935;246;24197;-78
2023/04/03 10:37:28;;;;;;;3.30;0.83;;;7.00;91.00;5.90;101820;;;;573838;246;24138;-76
2023/04/03 10:40:42;;;;;;;0.43;0.43;;;6.80;91.40;6.10;101815;;;;572234;246;24153;-75
2023/04/03 10:43:26;;;;;;;0.63;0.53;;;6.90;87.80;6.00;101825;;;;564018;250;24192;-80
2023/04/03 10:46:02;;;;;;;1.03;0.50;;;6.90;87.80;5.80;101819;;;;580317;245;24006;-80
2023/04/03 10:48:36;;;;;;;4.57;0.83;;;6.80;87.90;5.80;101829;;;;561056;250;24245;-76
2023/04/03 10:51:41;;;;;;;0.20;0.20;;;6.70;87.20;5.70;101819;;;;563678;250;24165;-76
2023/04/03 10:54:17;;;;;;;1.13;0.33;;;6.60;87.10;5.50;101829;;;;563263;251;24122;-78
2023/04/03 10:56:57;;;;;;;0.40;0.37;;;6.50;87.10;5.30;101824;;;;580257;246;24101;-79
2023/04/03 10:59:44;;;;;;;0.87;0.43;;;6.30;89.90;5.40;101811;;;;575355;246;24126;-80
2023/04/03 11:02:33;;;;;;;2.33;0.43;;;6.30;89.90;5.70;101821;;;;574026;246;24308;-77
2023/04/03 11:05:05;;;;;;;3.07;0.57;;;6.60;90.20;5.60;101811;;;;583022;246;24191;-78
2023/04/03 11:07:38;;;;;;;4.70;1.17;;;6.60;89.00;5.70;101821;;;;575693;245;24109;-75
2023/04/03 11:10:42;;;;;;;1.37;0.53;;;6.50;90.10;5.70;101828;;;;575668;245;24102;-77
2023/04/03 11:13:34;;;;;;;1.90;1.10;;;6.60;89.60;5.50;101811;;;;577282;245;24169;-80
2023/04/03 11:16:07;;;;;;;0.93;0.50;;;6.40;88.50;5.10;101835;;;;554853;245;24119;-80
2023/04/03 11:18:48;;;;;;;0.30;0.30;;;6.10;88.80;4.80;101814;;;;574440;246;24145;-76
2023/04/03 11:21:17;;;;;;;0.30;0.30;;;5.50;89.70;4.40;101809;;;;578374;246;24131;-78
2023/04/03 11:23:46;;;;;;;1.50;0.87;;;5.30;91.00;4.30;101811;;;;574021;246;24113;-76
2023/04/03 11:26:16;;;;;;;3.40;0.80;;;5.20;90.90;4.20;101797;;;;577818;244;24168;-78
2023/04/03 11:28:44;;;;;;;1.10;0.70;;;5.10;92.20;4.20;101827;;;;573761;246;24132;-77
2023/04/03 11:31:49;;;;;;;0.57;0.50;;;5.10;91.90;4.20;101821;;;;573994;246;24154;-75
2023/04/03 11:34:22;;;;;;;0.20;0.20;;;5.10;91.40;4.30;101820;;;;578658;246;24101;-76
2023/04/03 11:36:53;;;;;;;0.80;0.43;;;5.10;91.50;4.20;101804;;;;574303;246;25220;-75